Time;durP1;ratioP1;P1;durP2;ratioP2;P2;SDS_P1;SDS_P2;PMS_P1;PMS_P2;Temp;Humidity;BMP_temperature;BMP_pressure;BME280_temperature;BME280_humidity;BME280_pressure;Samples;Min_cycle;Max_cycle;Signal;HPM_P1;HPM_P2
2023/09/19 00:01:33;;;;;;;9.43;1.52;;;14.70;99.90;;;;;;4815946;29;20080;-84
2023/09/19 00:04:00;;;;;;;14.85;2.78;;;15.30;99.90;;;;;;4813277;29;20519;-80
2023/09/19 00:06:31;;;;;;;9.75;1.70;;;14.50;99.90;;;;;;4816257;29;20107;-81
2023/09/19 00:08:58;;;;;;;6.18;1.60;;;15.60;99.90;;;;;;4817142;29;20361;-81
2023/09/19 00:11:26;;;;;;;11.02;2.03;;;14.60;99.90;;;;;;4814022;29;20050;-81
2023/09/19 00:13:51;;;;;;;14.98;1.90;;;15.40;99.90;;;;;;4827919;29;20069;-80
2023/09/19 00:16:19;;;;;;;6.60;1.55;;;14.80;99.90;;;;;;4813487;29;20492;-82
2023/09/19 00:18:45;;;;;;;8.02;1.67;;;14.30;99.90;;;;;;4826653;29;20504;-82
2023/09/19 00:21:11;;;;;;;10.02;1.75;;;14.30;99.90;;;;;;4819114;29;20421;-80
2023/09/19 00:23:37;;;;;;;5.28;1.50;;;14.20;99.90;;;;;;4810638;29;20057;-83
2023/09/19 00:26:03;;;;;;;5.95;1.70;;;14.20;99.90;;;;;;4811822;29;20173;-82
2023/09/19 00:28:29;;;;;;;8.40;1.27;;;14.20;99.90;;;;;;4823324;29;20107;-84
2023/09/19 00:30:55;;;;;;;12.65;1.98;;;14.90;99.90;;;;;;4811847;29;20114;-82
2023/09/19 00:33:22;;;;;;;11.82;1.85;;;15.20;99.90;;;;;;4815819;29;20263;-82
2023/09/19 00:35:49;;;;;;;6.50;1.92;;;15.00;99.90;;;;;;4822387;29;20051;-80
2023/09/19 00:38:20;;;;;;;9.50;1.50;;;14.10;99.90;;;;;;4821358;29;20171;-80
2023/09/19 00:40:47;;;;;;;5.72;1.70;;;14.10;99.90;;;;;;4814064;29;20054;-79
2023/09/19 00:43:13;;;;;;;7.97;1.50;;;14.50;99.90;;;;;;4813551;29;20423;-79
2023/09/19 00:45:42;;;;;;;7.22;1.67;;;14.00;99.90;;;;;;4805108;29;20058;-81
2023/09/19 00:48:09;;;;;;;7.13;1.65;;;14.00;99.90;;;;;;4824577;29;20052;-80
2023/09/19 00:50:35;;;;;;;7.55;1.58;;;14.00;99.90;;;;;;4826791;29;20059;-80
2023/09/19 00:53:02;;;;;;;11.32;2.30;;;13.90;99.90;;;;;;4814602;29;20121;-81
2023/09/19 00:55:29;;;;;;;9.65;1.60;;;13.90;99.90;;;;;;4823651;29;20057;-81
2023/09/19 00:57:56;;;;;;;10.15;1.85;;;14.90;99.90;;;;;;4838668;29;20525;-82
2023/09/19 01:00:23;;;;;;;9.75;2.13;;;13.80;99.90;;;;;;4824545;29;20091;-81
2023/09/19 01:02:49;;;;;;;12.23;2.03;;;13.80;99.90;;;;;;4809310;29;20118;-81
2023/09/19 01:05:15;;;;;;;10.68;2.00;;;13.70;99.90;;;;;;4812726;29;20159;-81
2023/09/19 01:07:41;;;;;;;8.90;1.92;;;13.70;99.90;;;;;;4825851;29;20047;-81
2023/09/19 01:10:10;;;;;;;6.28;1.45;;;13.70;99.90;;;;;;4823188;29;20072;-81
2023/09/19 01:13:02;;;;;;;5.50;1.63;;;13.70;99.90;;;;;;4810175;29;20043;-79
2023/09/19 01:16:11;;;;;;;12.40;1.95;;;13.60;99.90;;;;;;4827377;29;20062;-80
2023/09/19 01:19:02;;;;;;;7.80;2.10;;;13.60;99.90;;;;;;4807682;29;20073;-81
2023/09/19 01:21:50;;;;;;;10.18;1.30;;;13.60;99.90;;;;;;4820359;29;20104;-81
2023/09/19 01:25:10;;;;;;;16.05;2.65;;;13.60;99.90;;;;;;4820254;29;20052;-79
2023/09/19 01:28:28;;;;;;;7.57;1.60;;;13.60;99.90;;;;;;4800976;29;20079;-79
2023/09/19 01:30:59;;;;;;;11.70;1.67;;;13.60;99.90;;;;;;4795740;29;20147;-80
2023/09/19 01:33:25;;;;;;;11.13;1.85;;;13.60;99.90;;;;;;4831025;29;20065;-80
2023/09/19 01:35:52;;;;;;;6.47;1.63;;;15.10;99.90;;;;;;4824385;29;20507;-80
2023/09/19 01:38:19;;;;;;;11.27;2.28;;;14.00;99.90;;;;;;4813519;29;20499;-80
2023/09/19 01:41:03;;;;;;;6.05;1.38;;;13.50;99.90;;;;;;4825143;29;20077;-81
2023/09/19 01:43:45;;;;;;;7.57;2.03;;;14.10;99.90;;;;;;4817163;29;20051;-81
2023/09/19 01:46:29;;;;;;;11.07;1.90;;;13.50;99.90;;;;;;4822681;29;20463;-80
2023/09/19 01:49:03;;;;;;;8.10;1.88;;;13.50;99.90;;;;;;4822306;29;20042;-80
2023/09/19 01:51:46;;;;;;;8.18;1.92;;;13.40;99.90;;;;;;4823034;29;20402;-81
2023/09/19 01:54:16;;;;;;;7.15;2.00;;;13.40;99.90;;;;;;4821221;29;20102;-80
2023/09/19 01:57:12;;;;;;;8.48;1.98;;;13.40;99.90;;;;;;4824755;29;20046;-80
2023/09/19 01:59:54;;;;;;;10.98;2.53;;;13.40;99.90;;;;;;4817593;29;20042;-80
2023/09/19 02:02:22;;;;;;;10.65;1.63;;;13.30;99.90;;;;;;4826988;29;20065;-81
2023/09/19 02:04:50;;;;;;;8.05;2.17;;;13.80;99.90;;;;;;4823464;29;20120;-79
2023/09/19 02:07:16;;;;;;;10.50;2.10;;;13.30;99.90;;;;;;4830348;29;20385;-78
2023/09/19 02:09:42;;;;;;;10.40;1.77;;;14.30;99.90;;;;;;4826953;29;20588;-81
2023/09/19 02:12:09;;;;;;;10.35;1.65;;;13.20;99.90;;;;;;4826191;29;20058;-83
2023/09/19 02:14:36;;;;;;;11.77;1.63;;;13.20;99.90;;;;;;4824577;29;20043;-82
2023/09/19 02:17:06;;;;;;;10.48;1.55;;;13.20;99.90;;;;;;4823369;29;20069;-79
2023/09/19 02:19:33;;;;;;;9.88;1.95;;;13.20;99.90;;;;;;4832319;29;20046;-81
2023/09/19 02:22:00;;;;;;;7.15;1.05;;;14.20;99.90;;;;;;4826538;29;20111;-80
2023/09/19 02:24:26;;;;;;;10.50;1.83;;;13.20;99.90;;;;;;4815593;29;20070;-78
2023/09/19 02:26:54;;;;;;;10.20;1.75;;;13.10;99.90;;;;;;4821891;29;20102;-79
2023/09/19 02:29:22;;;;;;;9.07;1.85;;;13.10;99.90;;;;;;4819336;29;20042;-78
2023/09/19 02:31:47;;;;;;;4.15;1.38;;;13.10;99.90;;;;;;4823179;29;20042;-80
2023/09/19 02:34:13;;;;;;;8.90;2.00;;;13.10;99.90;;;;;;4822293;29;20575;-79
2023/09/19 02:36:39;;;;;;;7.53;1.75;;;13.10;99.90;;;;;;4822186;29;20030;-80
2023/09/19 02:39:06;;;;;;;8.75;1.92;;;13.70;99.90;;;;;;4834357;29;20062;-81
2023/09/19 02:41:32;;;;;;;6.25;1.80;;;13.00;99.90;;;;;;4835324;29;20072;-79
2023/09/19 02:43:59;;;;;;;7.75;1.77;;;13.00;99.90;;;;;;4821776;29;20042;-81
2023/09/19 02:46:24;;;;;;;8.45;1.63;;;13.20;99.90;;;;;;4836338;29;20054;-81
2023/09/19 02:48:50;;;;;;;8.02;1.98;;;13.60;99.90;;;;;;4821478;29;20050;-80
2023/09/19 02:51:16;;;;;;;8.15;2.13;;;12.90;99.90;;;;;;4821747;29;20507;-79
2023/09/19 02:53:42;;;;;;;5.80;1.35;;;12.90;99.90;;;;;;4822255;29;20483;-81
2023/09/19 02:56:09;;;;;;;8.70;1.90;;;12.90;99.90;;;;;;4821360;29;20062;-81
2023/09/19 02:58:35;;;;;;;9.38;1.98;;;12.90;99.90;;;;;;4821995;29;20112;-82
2023/09/19 03:01:14;;;;;;;7.40;1.73;;;12.90;99.90;;;;;;4822149;29;20151;-81
2023/09/19 03:03:40;;;;;;;7.20;1.50;;;12.90;99.90;;;;;;4820471;29;20046;-80
2023/09/19 03:06:08;;;;;;;7.18;1.73;;;13.00;99.90;;;;;;4821527;29;20061;-80
2023/09/19 03:08:36;;;;;;;7.22;1.65;;;12.80;99.90;;;;;;4821759;29;20122;-80
2023/09/19 03:11:05;;;;;;;8.70;1.80;;;12.80;99.90;;;;;;4821163;29;20046;-81
2023/09/19 03:13:31;;;;;;;8.43;2.38;;;12.80;99.90;;;;;;4819914;29;20057;-81
2023/09/19 03:15:58;;;;;;;10.38;2.05;;;12.80;99.90;;;;;;4821728;29;20046;-80
2023/09/19 03:18:26;;;;;;;9.40;1.70;;;13.30;99.90;;;;;;4835317;29;20034;-81
2023/09/19 03:20:54;;;;;;;11.02;1.40;;;12.80;99.90;;;;;;4820700;29;20050;-82
2023/09/19 03:23:20;;;;;;;9.30;2.03;;;12.80;99.90;;;;;;4818983;29;20057;-80
2023/09/19 03:25:47;;;;;;;9.05;1.55;;;12.80;99.90;;;;;;4828566;29;20403;-83
2023/09/19 03:28:13;;;;;;;10.65;1.85;;;12.90;99.90;;;;;;4825791;29;20046;-80
2023/09/19 03:30:39;;;;;;;7.88;1.65;;;12.70;99.90;;;;;;4817479;29;20073;-80
2023/09/19 03:33:05;;;;;;;8.70;1.90;;;13.10;99.90;;;;;;4814199;29;20045;-81
2023/09/19 03:35:31;;;;;;;9.45;2.00;;;12.70;99.90;;;;;;4823569;29;20058;-80
2023/09/19 03:37:57;;;;;;;7.32;1.38;;;12.70;99.90;;;;;;4811772;29;20047;-80
2023/09/19 03:40:23;;;;;;;16.00;1.90;;;12.70;99.90;;;;;;4811152;29;20050;-77
2023/09/19 03:42:49;;;;;;;10.23;1.75;;;13.20;99.90;;;;;;4818362;29;20046;-80
2023/09/19 03:45:16;;;;;;;10.13;2.00;;;12.70;99.90;;;;;;4821463;29;20103;-80
2023/09/19 03:47:42;;;;;;;12.02;2.00;;;12.70;99.90;;;;;;4819997;29;20046;-81
2023/09/19 03:50:10;;;;;;;7.57;1.85;;;12.70;99.90;;;;;;4811690;29;20039;-79
2023/09/19 03:52:36;;;;;;;6.53;1.73;;;12.70;99.90;;;;;;4816297;29;20606;-82
2023/09/19 03:55:05;;;;;;;7.25;1.60;;;13.00;99.90;;;;;;4824165;29;20081;-83
2023/09/19 03:57:31;;;;;;;8.77;1.42;;;12.70;99.90;;;;;;4812727;29;20046;-81
2023/09/19 03:59:56;;;;;;;6.88;1.88;;;14.20;99.90;;;;;;4815221;29;20054;-81
2023/09/19 04:02:23;;;;;;;11.07;2.38;;;12.80;99.90;;;;;;4816930;29;20064;-85
2023/09/19 04:04:50;;;;;;;9.50;1.63;;;12.90;99.90;;;;;;4820160;29;20035;-81
2023/09/19 04:07:16;;;;;;;7.13;1.88;;;12.80;99.90;;;;;;4811959;29;20416;-82
2023/09/19 04:09:41;;;;;;;8.25;1.52;;;13.40;99.90;;;;;;4812943;29;20058;-81
2023/09/19 04:12:11;;;;;;;8.02;1.50;;;12.80;99.90;;;;;;4822106;29;20053;-81
2023/09/19 04:14:37;;;;;;;7.28;1.52;;;12.80;99.90;;;;;;4813406;29;20487;-81
2023/09/19 04:17:03;;;;;;;8.68;1.50;;;12.80;99.90;;;;;;4822060;29;20098;-81
2023/09/19 04:19:28;;;;;;;12.43;1.77;;;12.90;99.90;;;;;;4823092;29;20049;-80
2023/09/19 04:21:54;;;;;;;11.73;1.67;;;14.20;99.90;;;;;;4828135;29;20050;-81
2023/09/19 04:24:20;;;;;;;13.35;2.35;;;12.90;99.90;;;;;;4822055;29;20121;-85
2023/09/19 04:26:46;;;;;;;8.30;1.58;;;12.90;99.90;;;;;;4822238;29;20054;-80
2023/09/19 04:29:13;;;;;;;8.20;1.40;;;12.90;99.90;;;;;;4821766;29;20050;-82
2023/09/19 04:31:40;;;;;;;11.02;1.73;;;12.90;99.90;;;;;;4820781;29;20050;-80
2023/09/19 04:34:10;;;;;;;8.85;1.92;;;12.90;99.90;;;;;;4822685;29;20066;-80
2023/09/19 04:36:36;;;;;;;11.07;1.83;;;12.90;99.90;;;;;;4822429;29;20061;-80
2023/09/19 04:39:05;;;;;;;11.07;1.60;;;12.90;99.90;;;;;;4841286;29;20403;-81
2023/09/19 04:41:30;;;;;;;5.00;1.08;;;12.90;99.90;;;;;;4815919;29;20055;-81
2023/09/19 04:43:56;;;;;;;6.80;1.90;;;12.90;99.90;;;;;;4829381;29;20049;-82
2023/09/19 04:46:22;;;;;;;7.45;1.85;;;12.90;99.90;;;;;;4815019;29;20395;-83
2023/09/19 04:48:47;;;;;;;9.00;2.00;;;14.10;99.90;;;;;;4817864;29;20054;-82
2023/09/19 04:51:15;;;;;;;6.28;1.58;;;13.00;99.90;;;;;;4826984;29;20054;-82
2023/09/19 04:53:41;;;;;;;7.00;1.45;;;13.00;99.90;;;;;;4812071;29;20082;-82
2023/09/19 04:56:08;;;;;;;9.35;1.85;;;13.00;99.90;;;;;;4821794;29;20084;-80
2023/09/19 04:58:35;;;;;;;8.85;1.70;;;13.00;99.90;;;;;;4839162;29;20048;-81
2023/09/19 05:01:04;;;;;;;4.72;1.30;;;13.40;99.90;;;;;;4821267;29;20374;-82
2023/09/19 05:03:29;;;;;;;11.88;1.70;;;13.00;99.90;;;;;;4810628;29;20129;-83
2023/09/19 05:05:55;;;;;;;8.95;1.77;;;13.00;99.90;;;;;;4842727;29;20054;-81
2023/09/19 05:08:22;;;;;;;9.60;2.05;;;13.10;99.90;;;;;;4820468;29;20038;-82
2023/09/19 05:10:48;;;;;;;11.55;1.63;;;13.00;99.90;;;;;;4818686;29;20403;-82
2023/09/19 05:13:15;;;;;;;8.10;1.77;;;14.60;99.90;;;;;;4828691;29;20046;-80
2023/09/19 05:15:40;;;;;;;8.70;1.55;;;13.00;99.90;;;;;;4824804;29;20111;-80
2023/09/19 05:18:06;;;;;;;8.55;1.55;;;13.00;99.90;;;;;;4837901;29;20050;-80
2023/09/19 05:20:33;;;;;;;15.48;1.95;;;13.00;99.90;;;;;;4821088;29;20106;-84
2023/09/19 05:23:05;;;;;;;10.70;2.38;;;13.00;99.90;;;;;;4824348;29;20058;-81
2023/09/19 05:25:38;;;;;;;6.55;1.95;;;13.10;99.90;;;;;;4821217;29;20530;-82
2023/09/19 05:28:05;;;;;;;7.30;1.73;;;13.10;99.90;;;;;;4823989;29;20049;-81
2023/09/19 05:30:32;;;;;;;10.68;1.58;;;13.10;99.90;;;;;;4826525;29;20075;-81
2023/09/19 05:32:58;;;;;;;8.65;1.77;;;13.10;99.90;;;;;;4813709;29;20043;-85
2023/09/19 05:35:27;;;;;;;7.72;1.67;;;13.10;99.90;;;;;;4817455;29;20046;-81
2023/09/19 05:37:55;;;;;;;8.82;1.67;;;13.10;99.90;;;;;;4825088;29;20127;-85
2023/09/19 05:40:21;;;;;;;6.97;1.40;;;13.50;99.90;;;;;;4815440;29;20057;-80
2023/09/19 05:42:47;;;;;;;10.23;1.58;;;13.10;99.90;;;;;;4821053;29;20050;-83
2023/09/19 05:45:13;;;;;;;10.93;2.70;;;13.10;99.90;;;;;;4818205;29;20042;-82
2023/09/19 05:47:46;;;;;;;6.80;1.65;;;13.20;99.90;;;;;;4825632;29;20133;-82
2023/09/19 05:50:12;;;;;;;9.63;1.98;;;13.70;99.90;;;;;;4829887;29;20047;-84
2023/09/19 05:52:38;;;;;;;11.77;1.92;;;13.20;99.90;;;;;;4815097;29;20050;-81
2023/09/19 05:55:08;;;;;;;8.85;1.85;;;13.10;99.90;;;;;;4147370;29;10000702;-85
2023/09/19 05:57:42;;;;;;;8.55;1.65;;;13.20;99.90;;;;;;4821327;29;20054;-89
2023/09/19 06:00:10;;;;;;;8.68;1.50;;;13.20;99.90;;;;;;4815945;29;20222;-86
2023/09/19 06:02:37;;;;;;;8.18;1.50;;;13.20;99.90;;;;;;4821314;29;20050;-79
2023/09/19 06:05:10;;;;;;;11.20;2.63;;;13.20;99.90;;;;;;4826224;29;20047;-91
2023/09/19 06:07:36;;;;;;;9.18;1.67;;;13.20;99.90;;;;;;4820692;29;20534;-81
2023/09/19 06:10:06;;;;;;;8.50;2.28;;;13.20;99.90;;;;;;4821077;29;20144;-85
2023/09/19 06:12:37;;;;;;;9.50;2.20;;;13.20;99.90;;;;;;4820423;29;20535;-80
2023/09/19 06:15:05;;;;;;;10.10;1.60;;;13.20;99.90;;;;;;4820118;29;20062;-85
2023/09/19 06:17:31;;;;;;;11.00;2.17;;;13.30;99.90;;;;;;4820395;29;20050;-80
2023/09/19 06:19:56;;;;;;;15.48;2.55;;;14.20;99.90;;;;;;4820402;29;20052;-79
2023/09/19 06:22:24;;;;;;;8.13;1.60;;;13.30;99.90;;;;;;4813365;29;20054;-79
2023/09/19 06:24:50;;;;;;;7.65;1.88;;;14.50;99.90;;;;;;4821409;29;20492;-80
2023/09/19 06:27:15;;;;;;;18.15;2.72;;;13.30;99.90;;;;;;4835721;29;20254;-81
2023/09/19 06:29:41;;;;;;;10.35;1.90;;;13.30;99.90;;;;;;4819129;29;20500;-80
2023/09/19 06:32:10;;;;;;;11.75;2.20;;;13.40;99.90;;;;;;4822007;29;20531;-83
2023/09/19 06:34:38;;;;;;;13.48;2.45;;;13.40;99.90;;;;;;4821652;29;20050;-80
2023/09/19 06:37:05;;;;;;;11.98;1.90;;;13.40;99.90;;;;;;4820713;29;20122;-84
2023/09/19 06:39:31;;;;;;;9.68;2.10;;;13.80;99.90;;;;;;4821612;29;20060;-81
2023/09/19 06:41:57;;;;;;;9.13;1.90;;;13.40;99.90;;;;;;4820912;29;20050;-81
2023/09/19 06:44:24;;;;;;;14.02;2.20;;;13.40;99.90;;;;;;4822391;29;20046;-81
2023/09/19 06:46:51;;;;;;;8.23;2.40;;;13.50;99.90;;;;;;4822473;29;20058;-86
2023/09/19 06:49:17;;;;;;;11.50;2.80;;;13.50;99.90;;;;;;4820530;29;20051;-80
2023/09/19 06:51:43;;;;;;;12.48;1.90;;;13.50;99.90;;;;;;4822002;29;20038;-82
2023/09/19 06:54:09;;;;;;;6.70;1.75;;;13.60;99.90;;;;;;4815660;29;20522;-82
2023/09/19 06:56:35;;;;;;;10.88;2.10;;;15.00;99.90;;;;;;4813600;29;20050;-84
2023/09/19 06:59:02;;;;;;;10.02;1.83;;;13.60;99.90;;;;;;4829076;29;20046;-81
2023/09/19 07:01:28;;;;;;;10.10;2.10;;;13.70;99.90;;;;;;4823296;29;20058;-83
2023/09/19 07:03:54;;;;;;;13.57;2.50;;;13.70;99.90;;;;;;4812053;29;20051;-83
2023/09/19 07:06:20;;;;;;;13.63;2.55;;;13.70;99.90;;;;;;4811324;29;20046;-81
2023/09/19 07:08:46;;;;;;;9.90;2.20;;;13.70;99.90;;;;;;4812821;29;20126;-79
2023/09/19 07:11:12;;;;;;;16.20;2.58;;;14.40;99.90;;;;;;4824419;29;20563;-83
2023/09/19 07:13:39;;;;;;;13.50;2.10;;;13.80;99.90;;;;;;4828456;29;20110;-82
2023/09/19 07:16:04;;;;;;;9.15;2.33;;;13.90;99.90;;;;;;4812496;29;20389;-83
2023/09/19 07:18:31;;;;;;;12.23;2.00;;;13.80;99.90;;;;;;4811586;29;20749;-79
2023/09/19 07:21:01;;;;;;;12.52;2.35;;;13.90;99.90;;;;;;4821218;29;20058;-83
2023/09/19 07:23:26;;;;;;;13.80;2.38;;;13.90;99.90;;;;;;4814983;29;20130;-83
2023/09/19 07:25:56;;;;;;;11.95;2.58;;;13.90;99.90;;;;;;4812971;29;20415;-83
2023/09/19 07:28:22;;;;;;;12.82;2.72;;;14.00;99.90;;;;;;4812100;29;20183;-83
2023/09/19 07:30:48;;;;;;;13.60;3.25;;;14.00;99.90;;;;;;4824256;29;20058;-81
2023/09/19 07:33:14;;;;;;;10.40;2.22;;;14.30;99.90;;;;;;4812195;29;20050;-83
2023/09/19 07:35:40;;;;;;;8.48;2.28;;;14.00;99.90;;;;;;4812147;29;20408;-86
2023/09/19 07:38:06;;;;;;;11.50;2.70;;;14.00;99.90;;;;;;4814330;29;20054;-84
2023/09/19 07:40:32;;;;;;;10.73;2.00;;;14.10;99.90;;;;;;4821978;29;20047;-85
2023/09/19 07:43:01;;;;;;;12.68;2.50;;;14.70;99.90;;;;;;4814825;29;20058;-89
2023/09/19 07:45:29;;;;;;;11.57;3.10;;;14.10;99.90;;;;;;4815069;29;20054;-88
2023/09/19 07:47:55;;;;;;;10.32;2.20;;;14.10;99.90;;;;;;4811833;29;20404;-87
2023/09/19 07:50:21;;;;;;;9.73;2.58;;;14.20;99.90;;;;;;4815849;29;20078;-86
2023/09/19 07:52:50;;;;;;;9.10;2.03;;;14.20;99.90;;;;;;4826633;29;20552;-85
2023/09/19 07:55:16;;;;;;;20.23;2.80;;;14.30;99.90;;;;;;4812007;29;20580;-81
2023/09/19 07:57:46;;;;;;;15.80;2.10;;;14.30;99.90;;;;;;4811922;29;20130;-81
2023/09/19 08:00:12;;;;;;;10.93;1.90;;;14.30;99.90;;;;;;4827349;29;20162;-85
2023/09/19 08:02:39;;;;;;;18.02;2.60;;;14.30;99.90;;;;;;4828357;29;20054;-84
2023/09/19 08:05:06;;;;;;;11.25;2.10;;;14.30;99.90;;;;;;4814619;29;20498;-88
2023/09/19 08:07:33;;;;;;;12.68;2.20;;;14.30;99.90;;;;;;4828204;29;20060;-89
2023/09/19 08:09:58;;;;;;;8.80;2.25;;;14.30;99.90;;;;;;4835064;29;20046;-84
2023/09/19 08:12:24;;;;;;;10.77;2.67;;;14.30;99.90;;;;;;4814625;29;20053;-87
2023/09/19 08:14:50;;;;;;;9.75;2.35;;;14.30;99.90;;;;;;4812916;29;20061;-87
2023/09/19 08:17:16;;;;;;;11.63;2.45;;;14.40;99.90;;;;;;4811801;29;20046;-83
2023/09/19 08:19:44;;;;;;;13.32;2.47;;;14.30;99.90;;;;;;4817699;29;20114;-87
2023/09/19 08:22:10;;;;;;;11.10;2.35;;;14.70;99.90;;;;;;4820081;29;20069;-80
2023/09/19 08:24:36;;;;;;;12.50;2.20;;;15.50;99.90;;;;;;4814517;29;20133;-83
2023/09/19 08:27:04;;;;;;;10.70;2.00;;;14.40;99.90;;;;;;4811638;29;20182;-81
2023/09/19 08:29:30;;;;;;;10.75;2.40;;;14.40;99.90;;;;;;4818242;29;20058;-83
2023/09/19 08:31:59;;;;;;;9.45;2.20;;;14.40;99.90;;;;;;4812444;29;20049;-85
2023/09/19 08:34:25;;;;;;;12.82;2.75;;;14.50;99.90;;;;;;4810902;29;20086;-82
2023/09/19 08:36:57;;;;;;;11.73;2.50;;;14.50;99.90;;;;;;4811819;29;20058;-91
2023/09/19 08:39:24;;;;;;;8.65;2.55;;;14.50;99.90;;;;;;4815875;29;20469;-83
2023/09/19 08:41:56;;;;;;;13.65;2.78;;;14.60;99.90;;;;;;4812032;29;20416;-83
2023/09/19 08:44:22;;;;;;;13.15;2.55;;;14.60;99.90;;;;;;4814545;29;20126;-83
2023/09/19 08:46:50;;;;;;;10.07;1.80;;;14.90;99.90;;;;;;4827526;29;20141;-82
2023/09/19 08:49:37;;;;;;;15.00;3.08;;;14.80;99.90;;;;;;4830947;29;20046;-81
2023/09/19 08:52:16;;;;;;;16.92;2.92;;;14.80;99.90;;;;;;4817503;29;20081;-83
2023/09/19 08:54:43;;;;;;;11.23;2.40;;;14.90;99.90;;;;;;4817477;29;20085;-84
2023/09/19 08:57:11;;;;;;;14.18;2.95;;;14.90;99.90;;;;;;4814688;29;20671;-84
2023/09/19 08:59:43;;;;;;;14.95;2.97;;;14.90;99.90;;;;;;4820119;29;20050;-83
2023/09/19 09:02:13;;;;;;;9.15;3.00;;;14.90;99.90;;;;;;4815301;29;20281;-83
2023/09/19 09:04:41;;;;;;;11.80;2.63;;;15.10;99.90;;;;;;4816315;29;20055;-84
2023/09/19 09:07:12;;;;;;;10.73;2.78;;;15.00;99.90;;;;;;4813774;29;20065;-85
2023/09/19 09:09:42;;;;;;;15.77;3.42;;;15.00;99.90;;;;;;4819339;29;20095;-85
2023/09/19 09:12:12;;;;;;;19.92;3.60;;;15.00;99.90;;;;;;4816989;29;20504;-84
2023/09/19 09:14:38;;;;;;;12.48;2.67;;;15.10;99.90;;;;;;4816752;29;20051;-84
2023/09/19 09:17:04;;;;;;;14.55;3.15;;;15.10;99.90;;;;;;4815485;29;20107;-84
2023/09/19 09:19:31;;;;;;;15.50;3.47;;;15.20;99.90;;;;;;4819645;29;20132;-84
2023/09/19 09:22:09;;;;;;;13.05;3.08;;;15.20;99.90;;;;;;4825325;29;20066;-82
2023/09/19 09:24:37;;;;;;;13.75;2.97;;;15.20;99.90;;;;;;4813499;29;20093;-81
2023/09/19 09:27:13;;;;;;;16.95;3.67;;;15.30;99.90;;;;;;4815479;29;20133;-83
2023/09/19 09:29:43;;;;;;;12.13;3.17;;;15.30;99.90;;;;;;4820912;29;20038;-81
2023/09/19 09:32:34;;;;;;;18.95;3.55;;;15.30;99.90;;;;;;4816794;29;20065;-81
2023/09/19 09:35:01;;;;;;;14.60;3.40;;;15.30;99.90;;;;;;4815805;29;20057;-82
2023/09/19 09:37:29;;;;;;;15.63;3.38;;;15.40;99.90;;;;;;4814041;29;20061;-80
2023/09/19 09:40:19;;;;;;;15.50;3.40;;;15.40;99.90;;;;;;4820674;29;20474;-84
2023/09/19 09:42:49;;;;;;;10.07;2.60;;;15.50;99.90;;;;;;4812479;29;20125;-85
2023/09/19 09:45:37;;;;;;;13.48;2.80;;;15.50;99.90;;;;;;4813320;29;20058;-83
2023/09/19 09:48:06;;;;;;;11.43;3.03;;;15.60;99.90;;;;;;4815206;29;20152;-87
2023/09/19 09:50:55;;;;;;;15.05;3.25;;;15.60;99.90;;;;;;4824223;29;20552;-88
2023/09/19 09:53:27;;;;;;;10.77;3.30;;;15.60;99.90;;;;;;4816254;29;20431;-81
2023/09/19 09:56:06;;;;;;;14.40;3.80;;;15.70;99.90;;;;;;4815295;29;20103;-85
2023/09/19 09:58:33;;;;;;;16.30;2.85;;;15.70;99.90;;;;;;4811436;29;20086;-85
2023/09/19 10:01:02;;;;;;;20.15;4.30;;;15.80;99.90;;;;;;4821323;29;20101;-83
2023/09/19 10:03:49;;;;;;;18.50;3.50;;;16.10;99.90;;;;;;4812968;29;20047;-85
2023/09/19 10:06:34;;;;;;;16.05;3.17;;;15.90;99.90;;;;;;4833975;29;20051;-85
2023/09/19 10:09:29;;;;;;;14.93;3.65;;;16.40;99.90;;;;;;4829636;29;20420;-83
2023/09/19 10:12:08;;;;;;;10.63;2.25;;;16.10;99.90;;;;;;4816034;29;20047;-85
2023/09/19 10:14:38;;;;;;;13.10;3.25;;;16.10;99.90;;;;;;4813153;29;20051;-82
2023/09/19 10:17:05;;;;;;;15.50;3.03;;;16.30;99.90;;;;;;4812886;29;20428;-82
2023/09/19 10:19:57;;;;;;;17.85;2.83;;;16.30;99.90;;;;;;4820763;29;20098;-82
2023/09/19 10:22:24;;;;;;;15.30;3.17;;;17.20;99.90;;;;;;4824695;29;20058;-82
2023/09/19 10:24:53;;;;;;;11.88;3.10;;;16.30;99.90;;;;;;4820815;29;20123;-82
2023/09/19 10:27:20;;;;;;;17.33;3.03;;;16.40;99.90;;;;;;4815689;29;20085;-82
2023/09/19 10:29:55;;;;;;;14.23;3.33;;;16.40;99.90;;;;;;4816082;29;20058;-84
2023/09/19 10:32:23;;;;;;;13.20;2.88;;;16.40;99.90;;;;;;4816047;29;20412;-85
2023/09/19 10:34:49;;;;;;;11.32;2.67;;;16.50;99.90;;;;;;4814194;29;20054;-87
2023/09/19 10:37:16;;;;;;;17.90;3.05;;;16.60;99.90;;;;;;4815002;29;20414;-82
2023/09/19 10:39:47;;;;;;;12.07;2.80;;;16.60;99.90;;;;;;4818359;29;20042;-87
2023/09/19 10:42:18;;;;;;;17.45;2.70;;;16.70;99.90;;;;;;4815376;29;20492;-87
2023/09/19 10:44:47;;;;;;;15.10;3.20;;;16.70;99.90;;;;;;4815955;29;20057;-85
2023/09/19 10:47:14;;;;;;;17.42;3.13;;;16.60;99.90;;;;;;4814223;29;20050;-83
2023/09/19 10:49:46;;;;;;;17.88;3.35;;;16.60;99.90;;;;;;4821009;29;20105;-83
2023/09/19 10:52:19;;;;;;;10.88;2.42;;;16.60;99.90;;;;;;4831378;29;20096;-83
2023/09/19 10:54:54;;;;;;;14.90;3.65;;;16.70;99.90;;;;;;4815141;29;20472;-86
2023/09/19 10:57:23;;;;;;;13.57;2.85;;;16.70;99.90;;;;;;4813320;29;20062;-87
2023/09/19 11:00:23;;;;;;;14.25;3.30;;;16.60;99.90;;;;;;4822319;29;20057;-85
2023/09/19 11:03:30;;;;;;;16.52;2.90;;;16.70;99.90;;;;;;4818535;29;20054;-80
2023/09/19 11:06:16;;;;;;;16.23;3.15;;;16.60;99.90;;;;;;4812413;29;20055;-82
2023/09/19 11:09:21;;;;;;;13.88;2.25;;;16.60;99.90;;;;;;4815000;29;20451;-81
2023/09/19 11:11:50;;;;;;;15.38;2.80;;;16.90;99.90;;;;;;4821782;29;20503;-81
2023/09/19 11:14:28;;;;;;;18.88;2.90;;;16.60;99.90;;;;;;4813420;29;20466;-82
2023/09/19 11:17:13;;;;;;;7.05;2.33;;;16.70;99.90;;;;;;4811450;29;20054;-84
2023/09/19 11:20:26;;;;;;;14.48;3.63;;;16.70;99.90;;;;;;4817013;29;20042;-86
2023/09/19 11:22:50;;;;;;;18.02;2.95;;;16.70;99.90;;;;;;4815360;29;20115;-85
2023/09/19 11:25:31;;;;;;;15.60;3.40;;;16.70;99.90;;;;;;4813776;29;20415;-87
2023/09/19 11:28:07;;;;;;;14.85;3.25;;;16.70;99.90;;;;;;4826189;29;20066;-82
2023/09/19 11:30:34;;;;;;;11.00;3.30;;;16.70;99.90;;;;;;4826647;29;20457;-83
2023/09/19 11:33:23;;;;;;;14.07;2.75;;;16.80;99.90;;;;;;4814729;29;20060;-83
2023/09/19 11:36:15;;;;;;;13.05;2.85;;;16.80;99.90;;;;;;4811788;29;20133;-82
2023/09/19 11:38:49;;;;;;;11.23;2.58;;;16.90;99.90;;;;;;4814463;29;20384;-83
2023/09/19 11:41:21;;;;;;;16.23;3.17;;;16.90;99.90;;;;;;4820181;29;20054;-82
2023/09/19 11:44:06;;;;;;;11.20;2.70;;;17.00;99.90;;;;;;4810791;29;20059;-81
2023/09/19 11:46:52;;;;;;;19.63;3.03;;;17.10;99.90;;;;;;4829106;29;20051;-82
2023/09/19 11:49:23;;;;;;;19.65;3.42;;;17.10;99.90;;;;;;4814344;29;20045;-81
2023/09/19 11:51:54;;;;;;;22.63;3.83;;;17.20;99.90;;;;;;4815602;29;20370;-82
2023/09/19 11:54:21;;;;;;;11.23;2.65;;;17.10;99.90;;;;;;4812625;29;20074;-81
2023/09/19 11:56:53;;;;;;;15.70;2.80;;;17.20;99.90;;;;;;4813164;29;20048;-80
2023/09/19 11:59:30;;;;;;;14.40;3.08;;;17.10;99.90;;;;;;4813726;29;20061;-81
2023/09/19 12:02:08;;;;;;;13.65;2.95;;;17.00;99.90;;;;;;4815667;29;20046;-85
2023/09/19 12:04:39;;;;;;;8.90;2.38;;;17.00;99.90;;;;;;4814911;29;20046;-86
2023/09/19 12:07:15;;;;;;;12.80;2.92;;;16.90;99.90;;;;;;4814759;29;20054;-81
2023/09/19 12:09:43;;;;;;;16.23;3.17;;;16.90;99.90;;;;;;4817981;29;20053;-83
2023/09/19 12:12:16;;;;;;;11.35;2.47;;;16.90;99.90;;;;;;4826381;29;20050;-88
2023/09/19 12:14:50;;;;;;;10.60;2.60;;;16.90;99.90;;;;;;4814817;29;20039;-91
2023/09/19 12:17:18;;;;;;;10.68;2.75;;;16.90;99.90;;;;;;4814046;29;20133;-87
2023/09/19 12:20:13;;;;;;;10.77;2.83;;;16.90;99.90;;;;;;4814361;29;20125;-84
2023/09/19 12:22:40;;;;;;;7.47;2.25;;;16.90;99.90;;;;;;4822488;29;20119;-86
2023/09/19 12:25:07;;;;;;;14.68;3.40;;;16.80;99.90;;;;;;4811318;29;20046;-84
2023/09/19 12:27:43;;;;;;;12.15;2.50;;;16.90;99.90;;;;;;4813335;29;20102;-86
2023/09/19 12:30:17;;;;;;;15.93;2.17;;;16.80;99.90;;;;;;4842952;29;20050;-84
2023/09/19 12:32:44;;;;;;;14.02;2.72;;;16.90;99.90;;;;;;4816498;29;20142;-83
2023/09/19 12:35:17;;;;;;;13.75;2.63;;;16.90;99.90;;;;;;4814515;29;20114;-82
2023/09/19 12:37:52;;;;;;;9.40;2.03;;;16.80;99.90;;;;;;4811545;29;20372;-84
2023/09/19 12:40:28;;;;;;;10.52;2.45;;;16.80;99.90;;;;;;4814111;29;20046;-81
2023/09/19 12:43:02;;;;;;;15.65;2.40;;;16.80;99.90;;;;;;4816321;29;20061;-83
2023/09/19 12:45:30;;;;;;;8.52;1.80;;;16.90;99.90;;;;;;4812657;29;20050;-86
2023/09/19 12:48:34;;;;;;;7.55;2.00;;;16.90;99.90;;;;;;4810316;29;20450;-85
2023/09/19 12:51:07;;;;;;;12.27;1.95;;;16.90;99.90;;;;;;4831996;29;20377;-86
2023/09/19 12:53:42;;;;;;;10.93;2.50;;;16.90;99.90;;;;;;4822491;29;20141;-87
2023/09/19 12:56:13;;;;;;;9.25;2.13;;;17.30;99.90;;;;;;4814423;29;20074;-87
2023/09/19 12:58:49;;;;;;;15.13;2.25;;;17.00;99.90;;;;;;4813931;29;20058;-84